sensor_id;sensor_type;location;lat;lon;timestamp;temperature;humidity
19415;DHT22;9843;48.882;12.592;2022-07-23T00:01:57;21.40;99.90
19415;DHT22;9843;48.882;12.592;2022-07-23T00:04:24;21.30;99.90
19415;DHT22;9843;48.882;12.592;2022-07-23T00:06:50;21.30;99.90
19415;DHT22;9843;48.882;12.592;2022-07-23T00:09:17;21.30;99.90
19415;DHT22;9843;48.882;12.592;2022-07-23T00:11:44;21.20;99.90
19415;DHT22;9843;48.882;12.592;2022-07-23T00:14:10;21.20;99.90
19415;DHT22;9843;48.882;12.592;2022-07-23T00:16:37;21.20;99.90
19415;DHT22;9843;48.882;12.592;2022-07-23T00:19:05;21.10;99.90
19415;DHT22;9843;48.882;12.592;2022-07-23T00:21:32;21.10;99.90
19415;DHT22;9843;48.882;12.592;2022-07-23T00:23:58;21.00;99.90
19415;DHT22;9843;48.882;12.592;2022-07-23T00:26:25;21.10;99.90
19415;DHT22;9843;48.882;12.592;2022-07-23T00:28:52;21.00;99.90
19415;DHT22;9843;48.882;12.592;2022-07-23T00:31:18;21.10;99.90
19415;DHT22;9843;48.882;12.592;2022-07-23T00:33:45;21.10;99.90
19415;DHT22;9843;48.882;12.592;2022-07-23T00:36:13;21.10;99.90
19415;DHT22;9843;48.882;12.592;2022-07-23T00:38:40;21.10;99.90
19415;DHT22;9843;48.882;12.592;2022-07-23T00:41:07;21.10;99.90
19415;DHT22;9843;48.882;12.592;2022-07-23T00:43:33;21.10;99.90
19415;DHT22;9843;48.882;12.592;2022-07-23T00:46:00;21.10;99.90
19415;DHT22;9843;48.882;12.592;2022-07-23T00:48:27;21.10;99.90
19415;DHT22;9843;48.882;12.592;2022-07-23T00:50:53;21.10;99.90
19415;DHT22;9843;48.882;12.592;2022-07-23T00:53:21;21.10;99.90
19415;DHT22;9843;48.882;12.592;2022-07-23T00:55:49;21.00;99.90
19415;DHT22;9843;48.882;12.592;2022-07-23T00:58:16;21.00;99.90
19415;DHT22;9843;48.882;12.592;2022-07-23T01:00:43;21.00;99.90
19415;DHT22;9843;48.882;12.592;2022-07-23T01:03:10;21.00;99.90
19415;DHT22;9843;48.882;12.592;2022-07-23T01:05:37;21.00;99.90
19415;DHT22;9843;48.882;12.592;2022-07-23T01:08:05;21.00;99.90
19415;DHT22;9843;48.882;12.592;2022-07-23T01:10:33;21.00;99.90
19415;DHT22;9843;48.882;12.592;2022-07-23T01:13:01;20.90;99.90
19415;DHT22;9843;48.882;12.592;2022-07-23T01:15:29;20.90;99.90
19415;DHT22;9843;48.882;12.592;2022-07-23T01:17:56;20.90;99.90
19415;DHT22;9843;48.882;12.592;2022-07-23T01:20:23;21.00;99.90
19415;DHT22;9843;48.882;12.592;2022-07-23T01:22:52;21.00;99.90
19415;DHT22;9843;48.882;12.592;2022-07-23T01:25:19;21.10;99.90
19415;DHT22;9843;48.882;12.592;2022-07-23T01:27:45;21.10;99.90
19415;DHT22;9843;48.882;12.592;2022-07-23T01:30:13;21.10;99.90
19415;DHT22;9843;48.882;12.592;2022-07-23T01:32:40;21.20;99.90
19415;DHT22;9843;48.882;12.592;2022-07-23T01:35:08;21.20;99.90
19415;DHT22;9843;48.882;12.592;2022-07-23T01:37:35;21.20;99.90
19415;DHT22;9843;48.882;12.592;2022-07-23T01:40:04;21.20;99.90
19415;DHT22;9843;48.882;12.592;2022-07-23T01:42:31;21.20;99.90
19415;DHT22;9843;48.882;12.592;2022-07-23T01:44:58;21.20;99.90
19415;DHT22;9843;48.882;12.592;2022-07-23T01:47:25;21.10;99.90
19415;DHT22;9843;48.882;12.592;2022-07-23T01:49:52;21.10;99.90
19415;DHT22;9843;48.882;12.592;2022-07-23T01:52:18;21.00;99.90
19415;DHT22;9843;48.882;12.592;2022-07-23T01:54:45;21.00;99.90
19415;DHT22;9843;48.882;12.592;2022-07-23T01:57:13;21.00;99.90
19415;DHT22;9843;48.882;12.592;2022-07-23T01:59:40;20.90;99.90
19415;DHT22;9843;48.882;12.592;2022-07-23T02:02:06;20.80;99.90
19415;DHT22;9843;48.882;12.592;2022-07-23T02:04:33;20.80;99.90
19415;DHT22;9843;48.882;12.592;2022-07-23T02:07:02;20.80;99.90
19415;DHT22;9843;48.882;12.592;2022-07-23T02:09:29;20.80;99.90
19415;DHT22;9843;48.882;12.592;2022-07-23T02:11:56;20.80;99.90
19415;DHT22;9843;48.882;12.592;2022-07-23T02:14:24;20.80;99.90
19415;DHT22;9843;48.882;12.592;2022-07-23T02:16:51;20.80;99.90
19415;DHT22;9843;48.882;12.592;2022-07-23T02:19:18;20.80;99.90
19415;DHT22;9843;48.882;12.592;2022-07-23T02:21:44;20.80;99.90
19415;DHT22;9843;48.882;12.592;2022-07-23T02:24:11;20.90;99.90
19415;DHT22;9843;48.882;12.592;2022-07-23T02:26:38;20.90;99.90
19415;DHT22;9843;48.882;12.592;2022-07-23T02:29:05;21.00;99.90
19415;DHT22;9843;48.882;12.592;2022-07-23T02:31:33;21.00;99.90
19415;DHT22;9843;48.882;12.592;2022-07-23T02:34:00;21.10;99.90
19415;DHT22;9843;48.882;12.592;2022-07-23T02:36:27;21.10;99.90
19415;DHT22;9843;48.882;12.592;2022-07-23T02:38:53;21.30;99.90
19415;DHT22;9843;48.882;12.592;2022-07-23T02:41:20;21.40;99.90
19415;DHT22;9843;48.882;12.592;2022-07-23T02:43:47;21.50;99.90
19415;DHT22;9843;48.882;12.592;2022-07-23T02:46:14;21.60;99.90
19415;DHT22;9843;48.882;12.592;2022-07-23T02:48:42;21.60;99.90
19415;DHT22;9843;48.882;12.592;2022-07-23T02:51:09;21.70;99.90
19415;DHT22;9843;48.882;12.592;2022-07-23T02:53:36;21.70;99.90
19415;DHT22;9843;48.882;12.592;2022-07-23T02:56:03;21.70;99.90
19415;DHT22;9843;48.882;12.592;2022-07-23T02:58:30;21.70;99.90
19415;DHT22;9843;48.882;12.592;2022-07-23T03:00:57;21.70;99.90
19415;DHT22;9843;48.882;12.592;2022-07-23T03:03:23;21.60;99.90
19415;DHT22;9843;48.882;12.592;2022-07-23T03:05:51;21.60;99.90
19415;DHT22;9843;48.882;12.592;2022-07-23T03:08:18;21.60;99.90
19415;DHT22;9843;48.882;12.592;2022-07-23T03:10:44;21.60;99.90
19415;DHT22;9843;48.882;12.592;2022-07-23T03:13:11;21.60;99.90
19415;DHT22;9843;48.882;12.592;2022-07-23T03:15:38;21.60;99.90
19415;DHT22;9843;48.882;12.592;2022-07-23T03:18:05;21.60;99.90
19415;DHT22;9843;48.882;12.592;2022-07-23T03:20:31;21.50;99.90
19415;DHT22;9843;48.882;12.592;2022-07-23T03:22:59;21.50;99.90
19415;DHT22;9843;48.882;12.592;2022-07-23T03:25:26;21.50;99.90
19415;DHT22;9843;48.882;12.592;2022-07-23T03:27:53;21.50;99.90
19415;DHT22;9843;48.882;12.592;2022-07-23T03:30:20;21.50;99.90
19415;DHT22;9843;48.882;12.592;2022-07-23T03:32:46;21.40;99.90
19415;DHT22;9843;48.882;12.592;2022-07-23T03:35:13;21.30;99.90
19415;DHT22;9843;48.882;12.592;2022-07-23T03:37:40;21.10;99.90
19415;DHT22;9843;48.882;12.592;2022-07-23T03:40:09;20.80;99.90
19415;DHT22;9843;48.882;12.592;2022-07-23T03:42:36;20.60;99.90
19415;DHT22;9843;48.882;12.592;2022-07-23T03:45:05;20.30;99.90
19415;DHT22;9843;48.882;12.592;2022-07-23T03:47:32;20.10;99.90
19415;DHT22;9843;48.882;12.592;2022-07-23T03:49:59;19.90;99.90
19415;DHT22;9843;48.882;12.592;2022-07-23T03:52:25;19.70;99.90
19415;DHT22;9843;48.882;12.592;2022-07-23T03:54:52;19.50;99.90
19415;DHT22;9843;48.882;12.592;2022-07-23T03:57:20;19.30;99.90
19415;DHT22;9843;48.882;12.592;2022-07-23T03:59:47;19.30;99.90
19415;DHT22;9843;48.882;12.592;2022-07-23T04:02:14;19.20;99.90
19415;DHT22;9843;48.882;12.592;2022-07-23T04:04:41;19.20;99.90
19415;DHT22;9843;48.882;12.592;2022-07-23T04:07:07;19.10;99.90
19415;DHT22;9843;48.882;12.592;2022-07-23T04:09:34;19.10;99.90
19415;DHT22;9843;48.882;12.592;2022-07-23T04:12:01;19.00;99.90
19415;DHT22;9843;48.882;12.592;2022-07-23T04:14:29;19.00;99.90
19415;DHT22;9843;48.882;12.592;2022-07-23T04:16:56;19.00;99.90
19415;DHT22;9843;48.882;12.592;2022-07-23T04:19:22;18.90;99.90
19415;DHT22;9843;48.882;12.592;2022-07-23T04:21:49;18.90;99.90
19415;DHT22;9843;48.882;12.592;2022-07-23T04:24:16;18.90;99.90
19415;DHT22;9843;48.882;12.592;2022-07-23T04:26:42;18.90;99.90
19415;DHT22;9843;48.882;12.592;2022-07-23T04:29:09;18.90;99.90
19415;DHT22;9843;48.882;12.592;2022-07-23T04:31:37;19.00;99.90
19415;DHT22;9843;48.882;12.592;2022-07-23T04:34:04;18.90;99.90
19415;DHT22;9843;48.882;12.592;2022-07-23T04:36:31;18.90;99.90
19415;DHT22;9843;48.882;12.592;2022-07-23T04:38:57;18.90;99.90
19415;DHT22;9843;48.882;12.592;2022-07-23T04:41:24;18.80;99.90
19415;DHT22;9843;48.882;12.592;2022-07-23T04:43:51;18.80;99.90
19415;DHT22;9843;48.882;12.592;2022-07-23T04:46:18;18.90;99.90
19415;DHT22;9843;48.882;12.592;2022-07-23T04:48:46;18.90;99.90
19415;DHT22;9843;48.882;12.592;2022-07-23T04:51:12;18.80;99.90
19415;DHT22;9843;48.882;12.592;2022-07-23T04:53:39;18.70;99.90
19415;DHT22;9843;48.882;12.592;2022-07-23T04:56:06;18.60;99.90
19415;DHT22;9843;48.882;12.592;2022-07-23T04:58:33;18.50;99.90
19415;DHT22;9843;48.882;12.592;2022-07-23T05:01:00;18.50;99.90
19415;DHT22;9843;48.882;12.592;2022-07-23T05:03:27;18.50;99.90
19415;DHT22;9843;48.882;12.592;2022-07-23T05:05:55;18.50;99.90
19415;DHT22;9843;48.882;12.592;2022-07-23T05:08:22;18.60;99.90
19415;DHT22;9843;48.882;12.592;2022-07-23T05:10:49;18.50;99.90
19415;DHT22;9843;48.882;12.592;2022-07-23T05:13:16;18.50;99.90
19415;DHT22;9843;48.882;12.592;2022-07-23T05:15:44;18.60;99.90
19415;DHT22;9843;48.882;12.592;2022-07-23T05:18:11;18.60;99.90
19415;DHT22;9843;48.882;12.592;2022-07-23T05:20:38;18.70;99.90
19415;DHT22;9843;48.882;12.592;2022-07-23T05:23:06;18.80;99.90
19415;DHT22;9843;48.882;12.592;2022-07-23T05:25:33;19.00;99.90
19415;DHT22;9843;48.882;12.592;2022-07-23T05:28:00;19.30;99.90
19415;DHT22;9843;48.882;12.592;2022-07-23T05:30:27;19.50;99.90
19415;DHT22;9843;48.882;12.592;2022-07-23T05:32:53;19.80;99.90
19415;DHT22;9843;48.882;12.592;2022-07-23T05:35:20;20.10;99.90
19415;DHT22;9843;48.882;12.592;2022-07-23T05:37:47;20.30;99.90
19415;DHT22;9843;48.882;12.592;2022-07-23T05:40:15;20.40;99.90
19415;DHT22;9843;48.882;12.592;2022-07-23T05:42:42;20.40;99.90
19415;DHT22;9843;48.882;12.592;2022-07-23T05:45:09;20.50;99.90
19415;DHT22;9843;48.882;12.592;2022-07-23T05:47:45;20.50;99.90
19415;DHT22;9843;48.882;12.592;2022-07-23T05:50:12;20.50;99.90
19415;DHT22;9843;48.882;12.592;2022-07-23T05:52:39;20.70;99.90
19415;DHT22;9843;48.882;12.592;2022-07-23T05:55:08;20.70;99.90
19415;DHT22;9843;48.882;12.592;2022-07-23T05:57:36;20.70;99.90
19415;DHT22;9843;48.882;12.592;2022-07-23T06:00:05;20.70;99.90
19415;DHT22;9843;48.882;12.592;2022-07-23T06:02:32;20.80;99.90
19415;DHT22;9843;48.882;12.592;2022-07-23T06:04:59;20.90;99.90
19415;DHT22;9843;48.882;12.592;2022-07-23T06:07:26;21.10;99.90
19415;DHT22;9843;48.882;12.592;2022-07-23T06:09:52;21.40;99.90
19415;DHT22;9843;48.882;12.592;2022-07-23T06:12:19;21.70;99.90
19415;DHT22;9843;48.882;12.592;2022-07-23T06:14:47;21.80;99.90
19415;DHT22;9843;48.882;12.592;2022-07-23T06:17:15;22.00;99.90
19415;DHT22;9843;48.882;12.592;2022-07-23T06:19:42;22.00;99.90
19415;DHT22;9843;48.882;12.592;2022-07-23T06:22:08;22.10;99.90
19415;DHT22;9843;48.882;12.592;2022-07-23T06:24:35;22.10;99.90
19415;DHT22;9843;48.882;12.592;2022-07-23T06:27:02;22.10;99.90
19415;DHT22;9843;48.882;12.592;2022-07-23T06:29:29;22.10;99.90
19415;DHT22;9843;48.882;12.592;2022-07-23T06:31:57;22.30;99.90
19415;DHT22;9843;48.882;12.592;2022-07-23T06:34:23;22.60;99.90
19415;DHT22;9843;48.882;12.592;2022-07-23T06:36:50;22.90;99.90
19415;DHT22;9843;48.882;12.592;2022-07-23T06:39:17;23.10;99.90
19415;DHT22;9843;48.882;12.592;2022-07-23T06:41:43;23.10;99.90
19415;DHT22;9843;48.882;12.592;2022-07-23T06:44:10;23.40;99.90
19415;DHT22;9843;48.882;12.592;2022-07-23T06:46:37;23.30;99.90
19415;DHT22;9843;48.882;12.592;2022-07-23T06:49:05;23.50;99.90
19415;DHT22;9843;48.882;12.592;2022-07-23T06:51:31;23.80;99.90
19415;DHT22;9843;48.882;12.592;2022-07-23T06:53:58;23.90;99.90
19415;DHT22;9843;48.882;12.592;2022-07-23T06:56:25;24.00;99.90
19415;DHT22;9843;48.882;12.592;2022-07-23T06:58:51;24.10;99.90
19415;DHT22;9843;48.882;12.592;2022-07-23T07:01:18;24.30;99.90
19415;DHT22;9843;48.882;12.592;2022-07-23T07:03:45;24.30;99.90
19415;DHT22;9843;48.882;12.592;2022-07-23T07:06:13;24.70;99.90
19415;DHT22;9843;48.882;12.592;2022-07-23T07:08:40;24.90;99.90
19415;DHT22;9843;48.882;12.592;2022-07-23T07:11:08;25.00;99.90
19415;DHT22;9843;48.882;12.592;2022-07-23T07:13:35;25.10;99.90
19415;DHT22;9843;48.882;12.592;2022-07-23T07:16:02;25.40;99.90
19415;DHT22;9843;48.882;12.592;2022-07-23T07:18:28;25.80;99.90
19415;DHT22;9843;48.882;12.592;2022-07-23T07:20:56;26.20;99.90
19415;DHT22;9843;48.882;12.592;2022-07-23T07:23:24;26.50;99.90
19415;DHT22;9843;48.882;12.592;2022-07-23T07:25:51;26.50;99.90
19415;DHT22;9843;48.882;12.592;2022-07-23T07:28:17;26.40;99.90
19415;DHT22;9843;48.882;12.592;2022-07-23T07:30:44;26.20;99.90
19415;DHT22;9843;48.882;12.592;2022-07-23T07:33:11;26.00;99.90
19415;DHT22;9843;48.882;12.592;2022-07-23T07:35:37;25.90;99.90
19415;DHT22;9843;48.882;12.592;2022-07-23T07:38:04;25.70;99.90
19415;DHT22;9843;48.882;12.592;2022-07-23T07:40:32;25.70;99.90
19415;DHT22;9843;48.882;12.592;2022-07-23T07:42:59;25.90;99.90
19415;DHT22;9843;48.882;12.592;2022-07-23T07:45:27;26.20;99.90
19415;DHT22;9843;48.882;12.592;2022-07-23T07:47:53;26.70;99.90
19415;DHT22;9843;48.882;12.592;2022-07-23T07:50:20;27.20;99.90
19415;DHT22;9843;48.882;12.592;2022-07-23T07:52:47;27.70;99.90
19415;DHT22;9843;48.882;12.592;2022-07-23T07:55:14;28.20;99.90
19415;DHT22;9843;48.882;12.592;2022-07-23T07:57:42;28.40;99.90
19415;DHT22;9843;48.882;12.592;2022-07-23T08:00:10;28.30;99.90
19415;DHT22;9843;48.882;12.592;2022-07-23T08:02:43;28.30;99.90
19415;DHT22;9843;48.882;12.592;2022-07-23T08:05:11;28.60;99.90
19415;DHT22;9843;48.882;12.592;2022-07-23T08:07:38;28.70;99.90
19415;DHT22;9843;48.882;12.592;2022-07-23T08:10:06;29.40;99.90
19415;DHT22;9843;48.882;12.592;2022-07-23T08:12:46;29.90;99.90
19415;DHT22;9843;48.882;12.592;2022-07-23T08:15:14;29.70;99.90
19415;DHT22;9843;48.882;12.592;2022-07-23T08:17:41;29.40;99.90
19415;DHT22;9843;48.882;12.592;2022-07-23T08:20:09;29.30;99.90
19415;DHT22;9843;48.882;12.592;2022-07-23T08:22:48;29.30;99.90
19415;DHT22;9843;48.882;12.592;2022-07-23T08:25:19;30.00;99.90
19415;DHT22;9843;48.882;12.592;2022-07-23T08:27:48;30.80;99.90
19415;DHT22;9843;48.882;12.592;2022-07-23T08:30:15;31.10;99.90
19415;DHT22;9843;48.882;12.592;2022-07-23T08:32:50;31.90;98.90
19415;DHT22;9843;48.882;12.592;2022-07-23T08:35:17;32.40;96.30
19415;DHT22;9843;48.882;12.592;2022-07-23T08:37:44;32.50;95.00
19415;DHT22;9843;48.882;12.592;2022-07-23T08:40:12;32.30;94.30
19415;DHT22;9843;48.882;12.592;2022-07-23T08:42:39;32.10;94.80
19415;DHT22;9843;48.882;12.592;2022-07-23T08:45:08;31.90;92.60
19415;DHT22;9843;48.882;12.592;2022-07-23T08:47:37;31.80;90.90
19415;DHT22;9843;48.882;12.592;2022-07-23T08:50:05;31.40;91.10
19415;DHT22;9843;48.882;12.592;2022-07-23T08:52:34;31.00;91.80
19415;DHT22;9843;48.882;12.592;2022-07-23T08:55:01;30.70;91.80
19415;DHT22;9843;48.882;12.592;2022-07-23T08:57:28;30.10;92.30
19415;DHT22;9843;48.882;12.592;2022-07-23T08:59:55;29.60;93.50
19415;DHT22;9843;48.882;12.592;2022-07-23T09:02:23;29.10;94.40
19415;DHT22;9843;48.882;12.592;2022-07-23T09:04:50;29.00;95.20
19415;DHT22;9843;48.882;12.592;2022-07-23T09:07:17;29.10;95.90
19415;DHT22;9843;48.882;12.592;2022-07-23T09:09:44;28.90;95.90
19415;DHT22;9843;48.882;12.592;2022-07-23T09:12:11;28.90;96.60
19415;DHT22;9843;48.882;12.592;2022-07-23T09:14:39;29.10;96.30
19415;DHT22;9843;48.882;12.592;2022-07-23T09:17:11;29.10;97.60
19415;DHT22;9843;48.882;12.592;2022-07-23T09:19:40;29.40;97.20
19415;DHT22;9843;48.882;12.592;2022-07-23T09:22:20;29.80;97.40
19415;DHT22;9843;48.882;12.592;2022-07-23T09:25:05;30.20;95.60
19415;DHT22;9843;48.882;12.592;2022-07-23T09:27:47;30.50;95.70
19415;DHT22;9843;48.882;12.592;2022-07-23T09:30:15;30.90;96.40
19415;DHT22;9843;48.882;12.592;2022-07-23T09:32:42;31.60;94.30
19415;DHT22;9843;48.882;12.592;2022-07-23T09:35:10;31.80;92.80
19415;DHT22;9843;48.882;12.592;2022-07-23T09:37:37;31.70;93.40
19415;DHT22;9843;48.882;12.592;2022-07-23T09:40:04;31.30;93.10
19415;DHT22;9843;48.882;12.592;2022-07-23T09:42:31;30.50;93.20
19415;DHT22;9843;48.882;12.592;2022-07-23T09:44:59;29.50;94.90
19415;DHT22;9843;48.882;12.592;2022-07-23T09:47:28;28.90;96.00
19415;DHT22;9843;48.882;12.592;2022-07-23T09:49:58;28.50;96.70
19415;DHT22;9843;48.882;12.592;2022-07-23T09:52:28;28.00;98.00
19415;DHT22;9843;48.882;12.592;2022-07-23T09:54:59;27.50;98.70
19415;DHT22;9843;48.882;12.592;2022-07-23T09:57:27;27.10;99.70
19415;DHT22;9843;48.882;12.592;2022-07-23T09:59:57;27.00;99.90
19415;DHT22;9843;48.882;12.592;2022-07-23T10:02:25;27.00;99.90
19415;DHT22;9843;48.882;12.592;2022-07-23T10:04:53;27.00;99.90
19415;DHT22;9843;48.882;12.592;2022-07-23T10:07:22;26.90;99.90
19415;DHT22;9843;48.882;12.592;2022-07-23T10:09:51;26.90;99.90
19415;DHT22;9843;48.882;12.592;2022-07-23T10:12:18;26.80;99.90
19415;DHT22;9843;48.882;12.592;2022-07-23T10:14:58;26.70;99.90
19415;DHT22;9843;48.882;12.592;2022-07-23T10:17:25;26.70;99.90
19415;DHT22;9843;48.882;12.592;2022-07-23T10:19:53;26.60;99.90
19415;DHT22;9843;48.882;12.592;2022-07-23T10:22:23;26.60;99.90
19415;DHT22;9843;48.882;12.592;2022-07-23T10:24:59;26.50;99.90
19415;DHT22;9843;48.882;12.592;2022-07-23T10:27:41;26.50;99.90
19415;DHT22;9843;48.882;12.592;2022-07-23T10:30:14;26.50;99.90
19415;DHT22;9843;48.882;12.592;2022-07-23T10:32:48;26.50;99.90
19415;DHT22;9843;48.882;12.592;2022-07-23T10:35:23;26.40;99.90
19415;DHT22;9843;48.882;12.592;2022-07-23T10:37:55;26.50;99.90
19415;DHT22;9843;48.882;12.592;2022-07-23T10:40:24;26.60;99.90
19415;DHT22;9843;48.882;12.592;2022-07-23T10:42:52;26.70;99.90
19415;DHT22;9843;48.882;12.592;2022-07-23T10:45:29;26.90;99.90
19415;DHT22;9843;48.882;12.592;2022-07-23T10:48:12;27.40;99.90
19415;DHT22;9843;48.882;12.592;2022-07-23T10:50:39;28.10;99.60
19415;DHT22;9843;48.882;12.592;2022-07-23T10:53:14;28.90;98.40
19415;DHT22;9843;48.882;12.592;2022-07-23T10:55:53;30.60;96.00
19415;DHT22;9843;48.882;12.592;2022-07-23T10:58:22;31.30;92.00
19415;DHT22;9843;48.882;12.592;2022-07-23T11:00:50;31.20;93.20
19415;DHT22;9843;48.882;12.592;2022-07-23T11:03:34;32.10;90.80
19415;DHT22;9843;48.882;12.592;2022-07-23T11:06:04;34.10;88.60
19415;DHT22;9843;48.882;12.592;2022-07-23T11:08:31;35.90;80.60
19415;DHT22;9843;48.882;12.592;2022-07-23T11:11:12;38.20;76.50
19415;DHT22;9843;48.882;12.592;2022-07-23T11:13:45;40.30;64.00
19415;DHT22;9843;48.882;12.592;2022-07-23T11:19:00;41.10;57.60
19415;DHT22;9843;48.882;12.592;2022-07-23T11:21:46;41.40;55.70
19415;DHT22;9843;48.882;12.592;2022-07-23T11:24:15;42.10;55.50
19415;DHT22;9843;48.882;12.592;2022-07-23T11:26:52;43.20;53.60
19415;DHT22;9843;48.882;12.592;2022-07-23T11:29:42;44.10;52.70
19415;DHT22;9843;48.882;12.592;2022-07-23T11:32:27;44.50;48.90
19415;DHT22;9843;48.882;12.592;2022-07-23T11:34:54;43.70;48.60
19415;DHT22;9843;48.882;12.592;2022-07-23T11:37:32;43.70;48.30
19415;DHT22;9843;48.882;12.592;2022-07-23T11:39:59;43.40;48.90
19415;DHT22;9843;48.882;12.592;2022-07-23T11:42:27;42.30;47.40
19415;DHT22;9843;48.882;12.592;2022-07-23T11:44:54;42.00;49.60
19415;DHT22;9843;48.882;12.592;2022-07-23T11:47:25;43.30;49.80
19415;DHT22;9843;48.882;12.592;2022-07-23T11:49:52;43.50;47.00
19415;DHT22;9843;48.882;12.592;2022-07-23T11:52:19;43.10;49.60
19415;DHT22;9843;48.882;12.592;2022-07-23T11:54:48;42.70;47.70
19415;DHT22;9843;48.882;12.592;2022-07-23T11:57:15;42.00;48.40
19415;DHT22;9843;48.882;12.592;2022-07-23T11:59:43;42.20;50.70
19415;DHT22;9843;48.882;12.592;2022-07-23T12:02:12;41.70;49.60
19415;DHT22;9843;48.882;12.592;2022-07-23T12:04:39;41.40;49.60
19415;DHT22;9843;48.882;12.592;2022-07-23T12:07:25;41.00;50.60
19415;DHT22;9843;48.882;12.592;2022-07-23T12:09:52;40.90;51.30
19415;DHT22;9843;48.882;12.592;2022-07-23T12:12:19;40.90;50.10
19415;DHT22;9843;48.882;12.592;2022-07-23T12:14:52;40.50;50.60
19415;DHT22;9843;48.882;12.592;2022-07-23T12:17:20;40.40;51.00
19415;DHT22;9843;48.882;12.592;2022-07-23T12:19:47;40.20;51.80
19415;DHT22;9843;48.882;12.592;2022-07-23T12:22:14;40.10;51.90
19415;DHT22;9843;48.882;12.592;2022-07-23T12:24:54;39.90;51.80
19415;DHT22;9843;48.882;12.592;2022-07-23T12:27:22;39.90;52.50
19415;DHT22;9843;48.882;12.592;2022-07-23T12:29:50;39.60;51.50
19415;DHT22;9843;48.882;12.592;2022-07-23T12:32:21;39.30;53.50
19415;DHT22;9843;48.882;12.592;2022-07-23T12:34:49;39.00;53.40
19415;DHT22;9843;48.882;12.592;2022-07-23T12:37:31;38.60;52.20
19415;DHT22;9843;48.882;12.592;2022-07-23T12:39:58;37.80;52.60
19415;DHT22;9843;48.882;12.592;2022-07-23T12:42:24;37.60;56.20
19415;DHT22;9843;48.882;12.592;2022-07-23T12:45:08;37.10;53.60
19415;DHT22;9843;48.882;12.592;2022-07-23T12:47:56;36.50;54.90
19415;DHT22;9843;48.882;12.592;2022-07-23T12:50:42;36.40;55.90
19415;DHT22;9843;48.882;12.592;2022-07-23T12:53:12;36.70;56.30
19415;DHT22;9843;48.882;12.592;2022-07-23T12:55:40;36.80;55.20
19415;DHT22;9843;48.882;12.592;2022-07-23T12:58:09;36.70;55.30
19415;DHT22;9843;48.882;12.592;2022-07-23T13:01:00;36.20;56.10
19415;DHT22;9843;48.882;12.592;2022-07-23T13:03:30;36.00;58.80
19415;DHT22;9843;48.882;12.592;2022-07-23T13:05:57;36.30;59.20
19415;DHT22;9843;48.882;12.592;2022-07-23T13:08:26;36.70;59.00
19415;DHT22;9843;48.882;12.592;2022-07-23T13:10:54;37.00;58.50
19415;DHT22;9843;48.882;12.592;2022-07-23T13:13:22;36.90;58.80
19415;DHT22;9843;48.882;12.592;2022-07-23T13:15:49;36.30;58.50
19415;DHT22;9843;48.882;12.592;2022-07-23T13:18:18;36.20;60.20
19415;DHT22;9843;48.882;12.592;2022-07-23T13:20:46;36.00;59.90
19415;DHT22;9843;48.882;12.592;2022-07-23T13:23:13;36.20;59.80
19415;DHT22;9843;48.882;12.592;2022-07-23T13:25:41;36.30;59.50
19415;DHT22;9843;48.882;12.592;2022-07-23T13:28:08;35.80;59.30
19415;DHT22;9843;48.882;12.592;2022-07-23T13:30:35;35.80;60.00
19415;DHT22;9843;48.882;12.592;2022-07-23T13:33:03;36.10;61.20
19415;DHT22;9843;48.882;12.592;2022-07-23T13:35:31;36.30;59.30
19415;DHT22;9843;48.882;12.592;2022-07-23T13:37:58;36.30;59.20
19415;DHT22;9843;48.882;12.592;2022-07-23T13:40:25;36.30;60.10
19415;DHT22;9843;48.882;12.592;2022-07-23T13:42:52;36.50;60.60
19415;DHT22;9843;48.882;12.592;2022-07-23T13:45:18;36.30;60.10
19415;DHT22;9843;48.882;12.592;2022-07-23T13:47:45;36.30;59.60
19415;DHT22;9843;48.882;12.592;2022-07-23T13:50:12;36.40;59.40
19415;DHT22;9843;48.882;12.592;2022-07-23T13:52:42;36.40;58.40
19415;DHT22;9843;48.882;12.592;2022-07-23T13:55:09;36.40;59.60
19415;DHT22;9843;48.882;12.592;2022-07-23T13:57:36;36.40;59.30
19415;DHT22;9843;48.882;12.592;2022-07-23T14:00:05;36.70;59.60
19415;DHT22;9843;48.882;12.592;2022-07-23T14:02:32;36.80;59.20
19415;DHT22;9843;48.882;12.592;2022-07-23T14:04:59;36.30;58.00
19415;DHT22;9843;48.882;12.592;2022-07-23T14:07:26;36.30;60.20
19415;DHT22;9843;48.882;12.592;2022-07-23T14:09:54;35.80;60.50
19415;DHT22;9843;48.882;12.592;2022-07-23T14:12:21;35.40;61.50
19415;DHT22;9843;48.882;12.592;2022-07-23T14:14:48;35.10;61.40
19415;DHT22;9843;48.882;12.592;2022-07-23T14:17:14;34.70;62.60
19415;DHT22;9843;48.882;12.592;2022-07-23T14:19:41;34.10;63.40
19415;DHT22;9843;48.882;12.592;2022-07-23T14:22:08;33.80;63.80
19415;DHT22;9843;48.882;12.592;2022-07-23T14:24:35;33.50;65.50
19415;DHT22;9843;48.882;12.592;2022-07-23T14:27:04;33.10;66.20
19415;DHT22;9843;48.882;12.592;2022-07-23T14:29:31;32.80;67.10
19415;DHT22;9843;48.882;12.592;2022-07-23T14:31:58;32.60;66.80
19415;DHT22;9843;48.882;12.592;2022-07-23T14:34:25;32.40;66.50
19415;DHT22;9843;48.882;12.592;2022-07-23T14:36:52;32.10;68.10
19415;DHT22;9843;48.882;12.592;2022-07-23T14:39:19;31.50;67.50
19415;DHT22;9843;48.882;12.592;2022-07-23T14:41:46;31.10;69.30
19415;DHT22;9843;48.882;12.592;2022-07-23T14:44:14;30.70;70.20
19415;DHT22;9843;48.882;12.592;2022-07-23T14:46:40;30.50;70.80
19415;DHT22;9843;48.882;12.592;2022-07-23T14:49:07;30.30;70.80
19415;DHT22;9843;48.882;12.592;2022-07-23T14:51:34;30.10;72.40
19415;DHT22;9843;48.882;12.592;2022-07-23T14:54:02;29.90;72.20
19415;DHT22;9843;48.882;12.592;2022-07-23T14:56:28;29.90;73.30
19415;DHT22;9843;48.882;12.592;2022-07-23T14:58:55;29.90;72.20
19415;DHT22;9843;48.882;12.592;2022-07-23T15:01:23;30.00;72.30
19415;DHT22;9843;48.882;12.592;2022-07-23T15:03:50;30.00;72.30
19415;DHT22;9843;48.882;12.592;2022-07-23T15:06:17;30.00;72.60
19415;DHT22;9843;48.882;12.592;2022-07-23T15:08:44;30.00;72.20
19415;DHT22;9843;48.882;12.592;2022-07-23T15:11:11;30.00;72.60
19415;DHT22;9843;48.882;12.592;2022-07-23T15:13:38;30.00;72.60
19415;DHT22;9843;48.882;12.592;2022-07-23T15:16:06;30.00;74.00
19415;DHT22;9843;48.882;12.592;2022-07-23T15:18:34;29.90;74.00
19415;DHT22;9843;48.882;12.592;2022-07-23T15:21:01;29.80;74.80
19415;DHT22;9843;48.882;12.592;2022-07-23T15:23:28;29.60;75.10
19415;DHT22;9843;48.882;12.592;2022-07-23T15:25:55;29.40;75.30
19415;DHT22;9843;48.882;12.592;2022-07-23T15:28:22;29.20;75.60
19415;DHT22;9843;48.882;12.592;2022-07-23T15:30:50;28.90;76.80
19415;DHT22;9843;48.882;12.592;2022-07-23T15:33:17;28.80;77.00
19415;DHT22;9843;48.882;12.592;2022-07-23T15:35:46;28.70;79.70
19415;DHT22;9843;48.882;12.592;2022-07-23T15:38:13;28.50;84.00
19415;DHT22;9843;48.882;12.592;2022-07-23T15:40:40;28.20;85.10